sensor_id;sensor_type;location;lat;lon;timestamp;P1;durP1;ratioP1;P2;durP2;ratioP2
10497;SDS011;5296;51.060;13.750;2022-07-29T00:01:56;3.33;;;1.90;;
10497;SDS011;5296;51.060;13.750;2022-07-29T00:06:58;4.90;;;1.90;;
10497;SDS011;5296;51.060;13.750;2022-07-29T00:12:00;2.30;;;1.98;;
10497;SDS011;5296;51.060;13.750;2022-07-29T00:17:02;3.33;;;1.50;;
10497;SDS011;5296;51.060;13.750;2022-07-29T00:22:04;3.95;;;2.10;;
10497;SDS011;5296;51.060;13.750;2022-07-29T00:27:05;2.92;;;1.98;;
10497;SDS011;5296;51.060;13.750;2022-07-29T00:32:07;4.88;;;2.20;;
10497;SDS011;5296;51.060;13.750;2022-07-29T00:37:09;3.50;;;1.88;;
10497;SDS011;5296;51.060;13.750;2022-07-29T00:42:10;4.70;;;2.10;;
10497;SDS011;5296;51.060;13.750;2022-07-29T00:47:12;3.05;;;2.00;;
10497;SDS011;5296;51.060;13.750;2022-07-29T00:52:14;6.20;;;2.22;;
10497;SDS011;5296;51.060;13.750;2022-07-29T00:57:17;2.38;;;2.05;;
10497;SDS011;5296;51.060;13.750;2022-07-29T01:02:19;4.78;;;2.00;;
10497;SDS011;5296;51.060;13.750;2022-07-29T01:07:21;4.97;;;2.20;;
10497;SDS011;5296;51.060;13.750;2022-07-29T01:12:23;3.78;;;2.22;;
10497;SDS011;5296;51.060;13.750;2022-07-29T01:17:28;4.07;;;2.42;;
10497;SDS011;5296;51.060;13.750;2022-07-29T01:34:01;5.03;;;2.83;;
10497;SDS011;5296;51.060;13.750;2022-07-29T01:39:07;4.68;;;2.65;;
10497;SDS011;5296;51.060;13.750;2022-07-29T01:44:12;9.52;;;2.50;;
10497;SDS011;5296;51.060;13.750;2022-07-29T01:49:20;4.93;;;2.75;;
10497;SDS011;5296;51.060;13.750;2022-07-29T01:59:47;4.55;;;2.63;;
10497;SDS011;5296;51.060;13.750;2022-07-29T02:04:49;5.20;;;2.90;;
10497;SDS011;5296;51.060;13.750;2022-07-29T02:09:52;7.13;;;3.35;;
10497;SDS011;5296;51.060;13.750;2022-07-29T02:14:54;8.27;;;3.47;;
10497;SDS011;5296;51.060;13.750;2022-07-29T02:19:58;7.70;;;4.05;;
10497;SDS011;5296;51.060;13.750;2022-07-29T02:25:01;7.32;;;5.40;;
10497;SDS011;5296;51.060;13.750;2022-07-29T02:30:04;9.27;;;6.10;;
10497;SDS011;5296;51.060;13.750;2022-07-29T02:35:07;12.63;;;8.20;;
10497;SDS011;5296;51.060;13.750;2022-07-29T02:40:11;11.18;;;7.60;;
10497;SDS011;5296;51.060;13.750;2022-07-29T02:45:13;14.73;;;8.18;;
10497;SDS011;5296;51.060;13.750;2022-07-29T02:50:20;15.10;;;8.00;;
10497;SDS011;5296;51.060;13.750;2022-07-29T03:00:37;12.70;;;10.43;;
10497;SDS011;5296;51.060;13.750;2022-07-29T03:05:39;12.55;;;8.85;;
10497;SDS011;5296;51.060;13.750;2022-07-29T03:10:43;13.57;;;9.85;;
10497;SDS011;5296;51.060;13.750;2022-07-29T03:15:45;14.73;;;12.00;;
10497;SDS011;5296;51.060;13.750;2022-07-29T03:20:48;17.38;;;13.27;;
10497;SDS011;5296;51.060;13.750;2022-07-29T03:25:50;20.75;;;14.55;;
10497;SDS011;5296;51.060;13.750;2022-07-29T03:30:52;21.45;;;17.85;;
10497;SDS011;5296;51.060;13.750;2022-07-29T03:35:55;26.88;;;18.65;;
10497;SDS011;5296;51.060;13.750;2022-07-29T03:40:58;28.98;;;20.73;;
10497;SDS011;5296;51.060;13.750;2022-07-29T03:46:03;29.40;;;18.90;;
10497;SDS011;5296;51.060;13.750;2022-07-29T03:51:08;23.45;;;18.00;;
10497;SDS011;5296;51.060;13.750;2022-07-29T03:56:10;27.85;;;19.40;;
10497;SDS011;5296;51.060;13.750;2022-07-29T04:01:18;26.15;;;19.88;;
10497;SDS011;5296;51.060;13.750;2022-07-29T04:06:20;25.48;;;19.40;;
10497;SDS011;5296;51.060;13.750;2022-07-29T04:11:22;21.30;;;17.83;;
10497;SDS011;5296;51.060;13.750;2022-07-29T04:16:24;22.27;;;17.75;;
10497;SDS011;5296;51.060;13.750;2022-07-29T04:21:25;28.58;;;19.65;;
10497;SDS011;5296;51.060;13.750;2022-07-29T04:26:27;19.13;;;17.00;;
10497;SDS011;5296;51.060;13.750;2022-07-29T04:31:29;28.60;;;17.05;;
10497;SDS011;5296;51.060;13.750;2022-07-29T04:36:31;31.02;;;16.92;;
10497;SDS011;5296;51.060;13.750;2022-07-29T04:41:32;17.77;;;15.07;;
10497;SDS011;5296;51.060;13.750;2022-07-29T04:46:34;21.08;;;14.48;;
10497;SDS011;5296;51.060;13.750;2022-07-29T04:51:37;18.00;;;14.70;;
10497;SDS011;5296;51.060;13.750;2022-07-29T04:56:39;23.20;;;15.50;;
10497;SDS011;5296;51.060;13.750;2022-07-29T05:01:40;21.63;;;15.25;;
10497;SDS011;5296;51.060;13.750;2022-07-29T05:06:43;18.38;;;14.57;;
10497;SDS011;5296;51.060;13.750;2022-07-29T05:11:44;19.35;;;14.05;;
10497;SDS011;5296;51.060;13.750;2022-07-29T05:16:46;19.88;;;14.18;;
10497;SDS011;5296;51.060;13.750;2022-07-29T05:21:49;20.40;;;14.60;;
10497;SDS011;5296;51.060;13.750;2022-07-29T05:26:51;17.25;;;13.23;;
10497;SDS011;5296;51.060;13.750;2022-07-29T05:31:53;14.48;;;11.88;;
10497;SDS011;5296;51.060;13.750;2022-07-29T05:36:54;18.20;;;11.57;;
10497;SDS011;5296;51.060;13.750;2022-07-29T05:41:56;20.27;;;12.77;;
10497;SDS011;5296;51.060;13.750;2022-07-29T05:46:58;14.30;;;11.80;;
10497;SDS011;5296;51.060;13.750;2022-07-29T05:51:59;15.20;;;12.00;;
10497;SDS011;5296;51.060;13.750;2022-07-29T05:57:01;16.88;;;12.07;;
10497;SDS011;5296;51.060;13.750;2022-07-29T06:02:03;18.70;;;13.48;;
10497;SDS011;5296;51.060;13.750;2022-07-29T06:07:06;20.58;;;13.55;;
10497;SDS011;5296;51.060;13.750;2022-07-29T06:12:08;20.25;;;14.50;;
10497;SDS011;5296;51.060;13.750;2022-07-29T06:17:10;23.83;;;14.73;;
10497;SDS011;5296;51.060;13.750;2022-07-29T06:22:14;21.00;;;15.18;;
10497;SDS011;5296;51.060;13.750;2022-07-29T06:27:17;22.95;;;15.65;;
10497;SDS011;5296;51.060;13.750;2022-07-29T06:32:18;15.85;;;13.27;;
10497;SDS011;5296;51.060;13.750;2022-07-29T06:37:23;20.92;;;13.00;;
10497;SDS011;5296;51.060;13.750;2022-07-29T06:42:26;17.13;;;13.82;;
10497;SDS011;5296;51.060;13.750;2022-07-29T06:47:28;22.38;;;13.43;;
10497;SDS011;5296;51.060;13.750;2022-07-29T06:52:30;19.85;;;12.90;;
10497;SDS011;5296;51.060;13.750;2022-07-29T06:57:32;16.67;;;10.30;;
10497;SDS011;5296;51.060;13.750;2022-07-29T07:02:33;15.43;;;10.45;;
10497;SDS011;5296;51.060;13.750;2022-07-29T07:07:37;19.63;;;12.20;;
10497;SDS011;5296;51.060;13.750;2022-07-29T07:12:39;14.57;;;11.68;;
10497;SDS011;5296;51.060;13.750;2022-07-29T07:17:40;22.30;;;11.77;;
10497;SDS011;5296;51.060;13.750;2022-07-29T07:22:42;18.95;;;11.68;;
10497;SDS011;5296;51.060;13.750;2022-07-29T07:27:44;20.73;;;11.43;;
10497;SDS011;5296;51.060;13.750;2022-07-29T07:32:46;13.13;;;10.25;;
10497;SDS011;5296;51.060;13.750;2022-07-29T07:37:48;16.70;;;10.68;;
10497;SDS011;5296;51.060;13.750;2022-07-29T07:42:49;14.73;;;10.27;;
10497;SDS011;5296;51.060;13.750;2022-07-29T07:47:51;16.02;;;9.90;;
10497;SDS011;5296;51.060;13.750;2022-07-29T07:52:54;18.98;;;9.52;;
10497;SDS011;5296;51.060;13.750;2022-07-29T07:57:59;12.93;;;9.18;;
10497;SDS011;5296;51.060;13.750;2022-07-29T08:03:00;15.90;;;9.93;;
10497;SDS011;5296;51.060;13.750;2022-07-29T08:08:02;11.80;;;8.82;;
10497;SDS011;5296;51.060;13.750;2022-07-29T08:13:08;15.65;;;8.55;;
10497;SDS011;5296;51.060;13.750;2022-07-29T08:18:10;13.48;;;8.35;;
10497;SDS011;5296;51.060;13.750;2022-07-29T08:23:12;18.42;;;9.25;;
10497;SDS011;5296;51.060;13.750;2022-07-29T08:28:14;12.02;;;8.45;;
10497;SDS011;5296;51.060;13.750;2022-07-29T08:33:16;18.38;;;10.10;;
10497;SDS011;5296;51.060;13.750;2022-07-29T08:38:17;16.73;;;9.90;;
10497;SDS011;5296;51.060;13.750;2022-07-29T08:43:19;12.77;;;8.25;;
10497;SDS011;5296;51.060;13.750;2022-07-29T08:48:22;15.68;;;8.98;;
10497;SDS011;5296;51.060;13.750;2022-07-29T08:53:25;17.17;;;9.38;;
10497;SDS011;5296;51.060;13.750;2022-07-29T08:58:30;15.75;;;9.55;;
10497;SDS011;5296;51.060;13.750;2022-07-29T09:03:37;15.98;;;8.85;;
10497;SDS011;5296;51.060;13.750;2022-07-29T09:08:40;17.88;;;9.48;;
10497;SDS011;5296;51.060;13.750;2022-07-29T09:13:43;17.33;;;9.32;;
10497;SDS011;5296;51.060;13.750;2022-07-29T09:18:45;12.60;;;8.15;;
10497;SDS011;5296;51.060;13.750;2022-07-29T09:29:29;12.32;;;7.95;;
10497;SDS011;5296;51.060;13.750;2022-07-29T09:34:36;13.77;;;9.15;;
10497;SDS011;5296;51.060;13.750;2022-07-29T09:39:39;11.93;;;8.65;;
10497;SDS011;5296;51.060;13.750;2022-07-29T09:44:50;12.18;;;8.88;;
10497;SDS011;5296;51.060;13.750;2022-07-29T09:55:07;12.68;;;9.35;;
10497;SDS011;5296;51.060;13.750;2022-07-29T10:00:15;11.63;;;9.98;;
10497;SDS011;5296;51.060;13.750;2022-07-29T10:05:22;13.43;;;8.98;;
10497;SDS011;5296;51.060;13.750;2022-07-29T10:10:29;15.48;;;8.75;;
10497;SDS011;5296;51.060;13.750;2022-07-29T10:15:32;12.02;;;8.48;;
10497;SDS011;5296;51.060;13.750;2022-07-29T10:20:40;11.57;;;8.90;;
10497;SDS011;5296;51.060;13.750;2022-07-29T10:25:42;11.32;;;9.05;;
10497;SDS011;5296;51.060;13.750;2022-07-29T10:30:47;13.65;;;9.43;;
10497;SDS011;5296;51.060;13.750;2022-07-29T10:36:02;11.73;;;8.13;;
10497;SDS011;5296;51.060;13.750;2022-07-29T10:46:44;8.13;;;5.63;;
10497;SDS011;5296;51.060;13.750;2022-07-29T10:51:59;11.95;;;3.83;;
10497;SDS011;5296;51.060;13.750;2022-07-29T11:02:51;7.22;;;3.13;;
10497;SDS011;5296;51.060;13.750;2022-07-29T11:08:30;2.90;;;2.42;;
10497;SDS011;5296;51.060;13.750;2022-07-29T11:24:14;3.47;;;2.45;;
10497;SDS011;5296;51.060;13.750;2022-07-29T11:29:29;4.38;;;2.40;;
10497;SDS011;5296;51.060;13.750;2022-07-29T11:34:40;2.88;;;2.20;;
10497;SDS011;5296;51.060;13.750;2022-07-29T11:45:03;4.57;;;2.72;;
10497;SDS011;5296;51.060;13.750;2022-07-29T11:50:35;3.28;;;2.80;;
10497;SDS011;5296;51.060;13.750;2022-07-29T11:55:44;3.42;;;2.45;;
10497;SDS011;5296;51.060;13.750;2022-07-29T12:00:52;3.03;;;2.72;;
10497;SDS011;5296;51.060;13.750;2022-07-29T12:05:56;3.33;;;2.35;;
10497;SDS011;5296;51.060;13.750;2022-07-29T12:10:57;5.15;;;2.70;;
10497;SDS011;5296;51.060;13.750;2022-07-29T12:15:59;5.95;;;3.05;;
10497;SDS011;5296;51.060;13.750;2022-07-29T12:21:02;6.68;;;2.60;;
10497;SDS011;5296;51.060;13.750;2022-07-29T12:26:08;5.97;;;2.83;;
10497;SDS011;5296;51.060;13.750;2022-07-29T12:31:14;3.50;;;2.90;;
10497;SDS011;5296;51.060;13.750;2022-07-29T12:36:36;2.83;;;2.40;;
10497;SDS011;5296;51.060;13.750;2022-07-29T12:41:38;2.80;;;2.60;;
10497;SDS011;5296;51.060;13.750;2022-07-29T12:46:40;2.95;;;2.65;;
10497;SDS011;5296;51.060;13.750;2022-07-29T12:51:42;3.67;;;2.78;;
10497;SDS011;5296;51.060;13.750;2022-07-29T12:56:44;6.95;;;3.63;;
10497;SDS011;5296;51.060;13.750;2022-07-29T13:01:46;6.35;;;3.67;;
10497;SDS011;5296;51.060;13.750;2022-07-29T13:06:57;5.47;;;3.30;;
10497;SDS011;5296;51.060;13.750;2022-07-29T13:12:07;4.57;;;3.38;;
10497;SDS011;5296;51.060;13.750;2022-07-29T13:17:15;5.10;;;2.97;;
10497;SDS011;5296;51.060;13.750;2022-07-29T13:22:22;4.43;;;3.25;;
10497;SDS011;5296;51.060;13.750;2022-07-29T13:27:26;4.28;;;2.95;;
10497;SDS011;5296;51.060;13.750;2022-07-29T13:32:29;3.63;;;2.67;;
10497;SDS011;5296;51.060;13.750;2022-07-29T13:37:31;3.55;;;2.90;;
10497;SDS011;5296;51.060;13.750;2022-07-29T13:42:35;4.75;;;3.15;;
10497;SDS011;5296;51.060;13.750;2022-07-29T13:47:37;6.07;;;2.80;;
10497;SDS011;5296;51.060;13.750;2022-07-29T13:52:39;4.65;;;2.92;;
10497;SDS011;5296;51.060;13.750;2022-07-29T13:57:41;4.95;;;2.85;;
10497;SDS011;5296;51.060;13.750;2022-07-29T14:02:42;4.03;;;2.80;;
10497;SDS011;5296;51.060;13.750;2022-07-29T14:07:44;4.07;;;2.30;;
10497;SDS011;5296;51.060;13.750;2022-07-29T14:12:45;5.28;;;2.70;;
10497;SDS011;5296;51.060;13.750;2022-07-29T14:17:47;6.30;;;2.45;;
10497;SDS011;5296;51.060;13.750;2022-07-29T14:22:49;5.47;;;2.70;;
10497;SDS011;5296;51.060;13.750;2022-07-29T14:27:50;3.35;;;2.90;;
10497;SDS011;5296;51.060;13.750;2022-07-29T14:32:54;4.90;;;2.70;;
10497;SDS011;5296;51.060;13.750;2022-07-29T14:37:55;3.75;;;2.50;;
10497;SDS011;5296;51.060;13.750;2022-07-29T14:42:58;3.38;;;2.60;;
10497;SDS011;5296;51.060;13.750;2022-07-29T14:47:59;5.00;;;3.00;;
10497;SDS011;5296;51.060;13.750;2022-07-29T14:53:01;4.22;;;2.63;;
10497;SDS011;5296;51.060;13.750;2022-07-29T14:58:03;3.65;;;2.67;;
10497;SDS011;5296;51.060;13.750;2022-07-29T15:03:13;4.25;;;3.17;;
10497;SDS011;5296;51.060;13.750;2022-07-29T15:08:24;3.63;;;3.28;;
10497;SDS011;5296;51.060;13.750;2022-07-29T15:13:26;6.90;;;3.65;;
10497;SDS011;5296;51.060;13.750;2022-07-29T15:18:28;6.43;;;2.97;;
10497;SDS011;5296;51.060;13.750;2022-07-29T15:23:29;5.95;;;3.90;;
10497;SDS011;5296;51.060;13.750;2022-07-29T15:28:31;6.93;;;4.88;;
10497;SDS011;5296;51.060;13.750;2022-07-29T15:33:33;10.38;;;4.90;;
10497;SDS011;5296;51.060;13.750;2022-07-29T15:38:34;6.55;;;5.50;;
10497;SDS011;5296;51.060;13.750;2022-07-29T15:43:45;11.52;;;7.70;;
10497;SDS011;5296;51.060;13.750;2022-07-29T15:48:48;11.43;;;7.60;;
10497;SDS011;5296;51.060;13.750;2022-07-29T15:53:50;9.95;;;7.57;;
10497;SDS011;5296;51.060;13.750;2022-07-29T15:58:54;9.65;;;8.27;;
10497;SDS011;5296;51.060;13.750;2022-07-29T16:03:56;11.02;;;7.57;;
10497;SDS011;5296;51.060;13.750;2022-07-29T16:08:58;10.52;;;8.32;;
10497;SDS011;5296;51.060;13.750;2022-07-29T16:14:00;11.10;;;8.43;;
10497;SDS011;5296;51.060;13.750;2022-07-29T16:19:02;11.50;;;8.02;;
10497;SDS011;5296;51.060;13.750;2022-07-29T16:24:05;9.70;;;8.57;;
10497;SDS011;5296;51.060;13.750;2022-07-29T16:29:07;12.43;;;8.43;;
10497;SDS011;5296;51.060;13.750;2022-07-29T16:34:09;9.77;;;8.07;;
10497;SDS011;5296;51.060;13.750;2022-07-29T16:39:10;10.85;;;7.80;;
10497;SDS011;5296;51.060;13.750;2022-07-29T16:44:13;9.43;;;8.18;;
10497;SDS011;5296;51.060;13.750;2022-07-29T16:49:16;9.27;;;8.38;;
10497;SDS011;5296;51.060;13.750;2022-07-29T16:54:19;15.68;;;11.82;;
10497;SDS011;5296;51.060;13.750;2022-07-29T16:59:21;10.75;;;8.02;;
10497;SDS011;5296;51.060;13.750;2022-07-29T17:04:23;7.00;;;6.15;;
10497;SDS011;5296;51.060;13.750;2022-07-29T17:09:24;6.78;;;5.85;;
10497;SDS011;5296;51.060;13.750;2022-07-29T17:14:27;6.38;;;5.78;;
10497;SDS011;5296;51.060;13.750;2022-07-29T17:19:33;6.90;;;4.55;;
10497;SDS011;5296;51.060;13.750;2022-07-29T17:24:38;5.93;;;4.70;;
10497;SDS011;5296;51.060;13.750;2022-07-29T17:29:41;5.18;;;3.78;;
10497;SDS011;5296;51.060;13.750;2022-07-29T17:34:43;5.93;;;3.92;;
10497;SDS011;5296;51.060;13.750;2022-07-29T17:39:44;4.95;;;4.00;;
10497;SDS011;5296;51.060;13.750;2022-07-29T17:44:46;5.00;;;3.80;;
10497;SDS011;5296;51.060;13.750;2022-07-29T17:49:48;4.03;;;3.50;;
10497;SDS011;5296;51.060;13.750;2022-07-29T17:54:50;3.80;;;3.45;;
10497;SDS011;5296;51.060;13.750;2022-07-29T17:59:51;5.20;;;3.45;;
10497;SDS011;5296;51.060;13.750;2022-07-29T18:04:53;7.40;;;3.88;;
10497;SDS011;5296;51.060;13.750;2022-07-29T18:09:55;7.15;;;3.33;;
10497;SDS011;5296;51.060;13.750;2022-07-29T18:15:01;7.07;;;3.38;;
10497;SDS011;5296;51.060;13.750;2022-07-29T18:20:03;4.07;;;2.95;;
10497;SDS011;5296;51.060;13.750;2022-07-29T18:25:05;8.05;;;3.58;;
10497;SDS011;5296;51.060;13.750;2022-07-29T18:30:07;5.38;;;3.20;;
10497;SDS011;5296;51.060;13.750;2022-07-29T18:35:09;5.65;;;4.07;;
10497;SDS011;5296;51.060;13.750;2022-07-29T18:40:11;6.85;;;3.70;;
10497;SDS011;5296;51.060;13.750;2022-07-29T18:45:12;5.13;;;3.25;;
10497;SDS011;5296;51.060;13.750;2022-07-29T18:50:20;8.35;;;3.50;;
10497;SDS011;5296;51.060;13.750;2022-07-29T18:55:29;3.78;;;3.35;;
10497;SDS011;5296;51.060;13.750;2022-07-29T19:00:32;4.15;;;3.13;;
10497;SDS011;5296;51.060;13.750;2022-07-29T19:05:33;3.47;;;3.17;;
10497;SDS011;5296;51.060;13.750;2022-07-29T19:10:35;6.70;;;3.45;;
10497;SDS011;5296;51.060;13.750;2022-07-29T19:15:37;6.88;;;3.38;;
10497;SDS011;5296;51.060;13.750;2022-07-29T19:20:39;5.13;;;3.33;;
10497;SDS011;5296;51.060;13.750;2022-07-29T19:25:41;5.82;;;3.40;;
10497;SDS011;5296;51.060;13.750;2022-07-29T19:30:53;3.50;;;3.20;;
10497;SDS011;5296;51.060;13.750;2022-07-29T19:35:55;5.38;;;4.28;;
10497;SDS011;5296;51.060;13.750;2022-07-29T19:40:57;5.80;;;3.70;;
10497;SDS011;5296;51.060;13.750;2022-07-29T19:45:59;7.78;;;3.70;;
10497;SDS011;5296;51.060;13.750;2022-07-29T19:51:01;12.70;;;4.65;;
10497;SDS011;5296;51.060;13.750;2022-07-29T19:56:03;9.52;;;4.13;;
10497;SDS011;5296;51.060;13.750;2022-07-29T20:01:05;7.90;;;4.18;;
10497;SDS011;5296;51.060;13.750;2022-07-29T20:06:11;6.95;;;4.03;;
10497;SDS011;5296;51.060;13.750;2022-07-29T20:11:13;3.40;;;3.10;;
10497;SDS011;5296;51.060;13.750;2022-07-29T20:16:15;6.75;;;3.35;;
10497;SDS011;5296;51.060;13.750;2022-07-29T20:21:17;4.90;;;3.28;;
10497;SDS011;5296;51.060;13.750;2022-07-29T20:26:18;5.85;;;3.05;;
10497;SDS011;5296;51.060;13.750;2022-07-29T20:31:20;7.72;;;3.40;;
10497;SDS011;5296;51.060;13.750;2022-07-29T20:36:22;4.32;;;3.38;;
10497;SDS011;5296;51.060;13.750;2022-07-29T20:41:23;4.55;;;3.17;;
10497;SDS011;5296;51.060;13.750;2022-07-29T20:46:26;5.80;;;3.55;;
10497;SDS011;5296;51.060;13.750;2022-07-29T20:51:28;6.60;;;3.60;;
10497;SDS011;5296;51.060;13.750;2022-07-29T20:56:30;8.73;;;3.58;;
10497;SDS011;5296;51.060;13.750;2022-07-29T21:01:31;7.57;;;3.33;;
10497;SDS011;5296;51.060;13.750;2022-07-29T21:06:33;6.22;;;3.20;;
10497;SDS011;5296;51.060;13.750;2022-07-29T21:11:35;8.85;;;3.72;;
10497;SDS011;5296;51.060;13.750;2022-07-29T21:16:45;8.40;;;3.70;;
10497;SDS011;5296;51.060;13.750;2022-07-29T21:21:46;8.00;;;3.55;;
10497;SDS011;5296;51.060;13.750;2022-07-29T21:26:48;5.82;;;3.17;;
10497;SDS011;5296;51.060;13.750;2022-07-29T21:32:09;5.03;;;3.10;;
10497;SDS011;5296;51.060;13.750;2022-07-29T21:37:11;4.10;;;3.50;;
10497;SDS011;5296;51.060;13.750;2022-07-29T21:42:13;10.20;;;3.95;;
10497;SDS011;5296;51.060;13.750;2022-07-29T21:47:14;4.30;;;3.50;;
10497;SDS011;5296;51.060;13.750;2022-07-29T21:52:16;6.60;;;3.88;;
10497;SDS011;5296;51.060;13.750;2022-07-29T21:57:18;6.45;;;3.17;;
10497;SDS011;5296;51.060;13.750;2022-07-29T22:02:20;5.53;;;3.80;;
10497;SDS011;5296;51.060;13.750;2022-07-29T22:07:21;6.47;;;3.58;;
10497;SDS011;5296;51.060;13.750;2022-07-29T22:12:23;6.63;;;3.63;;
10497;SDS011;5296;51.060;13.750;2022-07-29T22:17:25;6.40;;;3.80;;
10497;SDS011;5296;51.060;13.750;2022-07-29T22:22:26;6.38;;;3.95;;
10497;SDS011;5296;51.060;13.750;2022-07-29T22:27:28;6.68;;;3.88;;
10497;SDS011;5296;51.060;13.750;2022-07-29T22:32:32;6.68;;;4.30;;
10497;SDS011;5296;51.060;13.750;2022-07-29T22:37:34;4.90;;;4.10;;
10497;SDS011;5296;51.060;13.750;2022-07-29T22:42:35;4.93;;;3.67;;
10497;SDS011;5296;51.060;13.750;2022-07-29T22:47:41;10.90;;;3.95;;
10497;SDS011;5296;51.060;13.750;2022-07-29T22:52:48;5.90;;;4.05;;
10497;SDS011;5296;51.060;13.750;2022-07-29T22:57:50;7.63;;;4.20;;
10497;SDS011;5296;51.060;13.750;2022-07-29T23:02:52;4.18;;;3.78;;
10497;SDS011;5296;51.060;13.750;2022-07-29T23:07:53;7.15;;;4.28;;
10497;SDS011;5296;51.060;13.750;2022-07-29T23:12:55;11.48;;;4.20;;
10497;SDS011;5296;51.060;13.750;2022-07-29T23:17:57;6.80;;;3.97;;
10497;SDS011;5296;51.060;13.750;2022-07-29T23:22:59;5.03;;;3.78;;
10497;SDS011;5296;51.060;13.750;2022-07-29T23:28:01;5.55;;;4.03;;
10497;SDS011;5296;51.060;13.750;2022-07-29T23:33:02;4.40;;;4.00;;
10497;SDS011;5296;51.060;13.750;2022-07-29T23:38:04;7.95;;;4.15;;
10497;SDS011;5296;51.060;13.750;2022-07-29T23:43:06;7.28;;;4.75;;
10497;SDS011;5296;51.060;13.750;2022-07-29T23:48:09;6.95;;;5.53;;
10497;SDS011;5296;51.060;13.750;2022-07-29T23:53:10;9.40;;;6.28;;
10497;SDS011;5296;51.060;13.750;2022-07-29T23:58:12;10.30;;;6.00;;
